^^
TXWeather Station Historical Data
Daily Summary for April 16, 2022 Units:  English    Metric   Both
Daily Weekly Monthly Yearly Custom
  High: Low: Average:
Temperature: 86.0 °F 73.0 °F 77.9 °F
Dew Point: 75.0 °F 69.0 °F 71.6 °F
Humidity: 91% 66% 82%
Wind Speed: 13mph 0mph 5.8mph
Wind Gust: 16mph - -
Wind- - SSE
Pressure: 30.0 in 29.9 in -
Precipitation: 0.000 in    
Historical Graphs
 
 
Tabular Data for April 16, 2022
Time Temperature Dew Point Pressure Wind Wind Speed Wind Gust Humidity Rainfall Rate (Hourly) solar
00:04 74.0 °F 69.0 °F 29.9 in SSE 6 mph 7 mph 87% 0.000 in 0.00 W/m2
00:09 74.0 °F 69.0 °F 29.9 in SE 4 mph 4 mph 87% 0.000 in 0.00 W/m2
00:14 74.0 °F 69.0 °F 29.9 in SSE 6 mph 6 mph 87% 0.000 in 0.00 W/m2
00:19 74.0 °F 69.0 °F 29.9 in SSE 5 mph 5 mph 87% 0.000 in 0.00 W/m2
00:24 74.0 °F 70.0 °F 29.9 in SE 5 mph 8 mph 88% 0.000 in 0.00 W/m2
00:29 74.0 °F 70.0 °F 29.9 in SE 4 mph 8 mph 88% 0.000 in 0.00 W/m2
00:34 74.0 °F 70.0 °F 29.9 in SSE 5 mph 6 mph 88% 0.000 in 0.00 W/m2
00:39 74.0 °F 70.0 °F 29.9 in SE 3 mph 6 mph 88% 0.000 in 0.00 W/m2
00:44 74.0 °F 70.0 °F 29.9 in SE 4 mph 5 mph 88% 0.000 in 0.00 W/m2
00:49 74.0 °F 70.0 °F 29.9 in SE 3 mph 5 mph 88% 0.000 in 0.00 W/m2
00:54 74.0 °F 70.0 °F 29.9 in SE 4 mph 4 mph 88% 0.000 in 0.00 W/m2
00:59 74.0 °F 70.0 °F 29.9 in SE 4 mph 4 mph 88% 0.000 in 0.00 W/m2
01:04 74.0 °F 70.0 °F 29.9 in SE 2 mph 4 mph 88% 0.000 in 0.00 W/m2
01:09 73.0 °F 70.0 °F 29.9 in SSE 5 mph 5 mph 89% 0.000 in 0.00 W/m2
01:14 73.0 °F 70.0 °F 29.9 in SSE 2 mph 3 mph 89% 0.000 in 0.00 W/m2
01:19 73.0 °F 70.0 °F 29.9 in SSE 2 mph 2 mph 89% 0.000 in 0.00 W/m2
01:24 73.0 °F 70.0 °F 29.9 in SSE 2 mph 2 mph 89% 0.000 in 0.00 W/m2
01:29 73.0 °F 70.0 °F 29.9 in SSE 2 mph 2 mph 89% 0.000 in 0.00 W/m2
01:34 73.0 °F 70.0 °F 29.9 in SSE 2 mph 2 mph 89% 0.000 in 0.00 W/m2
01:39 73.0 °F 70.0 °F 29.9 in SSE 3 mph 3 mph 89% 0.000 in 0.00 W/m2
01:44 73.0 °F 70.0 °F 29.9 in SSE 3 mph 3 mph 89% 0.000 in 0.00 W/m2
01:49 73.0 °F 70.0 °F 29.9 in SSE 5 mph 5 mph 89% 0.000 in 0.00 W/m2
01:54 74.0 °F 70.0 °F 29.9 in SSE 4 mph 6 mph 89% 0.000 in 0.00 W/m2
01:59 74.0 °F 70.0 °F 29.9 in SSE 3 mph 3 mph 89% 0.000 in 0.00 W/m2
02:04 74.0 °F 70.0 °F 29.9 in SSE 3 mph 3 mph 89% 0.000 in 0.00 W/m2
02:09 74.0 °F 70.0 °F 29.9 in SSE 2 mph 2 mph 89% 0.000 in 0.00 W/m2
02:14 74.0 °F 71.0 °F 29.9 in SSE 2 mph 2 mph 90% 0.000 in 0.00 W/m2
02:19 74.0 °F 71.0 °F 29.9 in SSE 3 mph 3 mph 90% 0.000 in 0.00 W/m2
02:24 74.0 °F 71.0 °F 29.9 in SE 4 mph 4 mph 90% 0.000 in 0.00 W/m2
02:29 74.0 °F 71.0 °F 29.9 in SSE 2 mph 2 mph 90% 0.000 in 0.00 W/m2
02:34 74.0 °F 71.0 °F 29.9 in SSE 2 mph 3 mph 90% 0.000 in 0.00 W/m2
02:39 74.0 °F 71.0 °F 29.9 in SE 4 mph 4 mph 90% 0.000 in 0.00 W/m2
02:44 74.0 °F 71.0 °F 29.9 in SE 3 mph 4 mph 90% 0.000 in 0.00 W/m2
02:49 74.0 °F 71.0 °F 29.9 in SE 3 mph 3 mph 90% 0.000 in 0.00 W/m2
02:54 74.0 °F 71.0 °F 29.9 in SSE 4 mph 4 mph 90% 0.000 in 0.00 W/m2
02:59 74.0 °F 71.0 °F 29.9 in SSE 3 mph 5 mph 90% 0.000 in 0.00 W/m2
03:04 74.0 °F 71.0 °F 29.9 in SSE 5 mph 7 mph 90% 0.000 in 0.00 W/m2
03:09 74.0 °F 71.0 °F 29.9 in SSE 3 mph 5 mph 90% 0.000 in 0.00 W/m2
03:14 74.0 °F 71.0 °F 29.9 in SSE 3 mph 3 mph 90% 0.000 in 0.00 W/m2
03:19 74.0 °F 71.0 °F 29.9 in SSE 4 mph 5 mph 90% 0.000 in 0.00 W/m2
03:24 74.0 °F 71.0 °F 29.9 in SSE 4 mph 4 mph 90% 0.000 in 0.00 W/m2
03:29 74.0 °F 71.0 °F 29.9 in SE 3 mph 5 mph 90% 0.000 in 0.00 W/m2
03:34 74.0 °F 71.0 °F 29.9 in SSE 3 mph 4 mph 90% 0.000 in 0.00 W/m2
03:39 74.0 °F 71.0 °F 29.9 in SSE 4 mph 5 mph 90% 0.000 in 0.00 W/m2
03:44 74.0 °F 71.0 °F 29.9 in SSE 4 mph 5 mph 90% 0.000 in 0.00 W/m2
03:49 74.0 °F 71.0 °F 29.9 in SSE 7 mph 7 mph 90% 0.000 in 0.00 W/m2
03:54 74.0 °F 71.0 °F 29.9 in SE 6 mph 8 mph 90% 0.000 in 0.00 W/m2
03:59 74.0 °F 71.0 °F 29.9 in SE 3 mph 3 mph 90% 0.000 in 0.00 W/m2
04:04 74.0 °F 71.0 °F 29.9 in SE 3 mph 3 mph 90% 0.000 in 0.00 W/m2
04:09 74.0 °F 71.0 °F 29.9 in SE 3 mph 5 mph 90% 0.000 in 0.00 W/m2
04:14 74.0 °F 71.0 °F 29.9 in SSE 6 mph 6 mph 90% 0.000 in 0.00 W/m2
04:19 74.0 °F 71.0 °F 29.9 in SSE 4 mph 5 mph 90% 0.000 in 0.00 W/m2
04:24 74.0 °F 71.0 °F 29.9 in SSE 2 mph 5 mph 90% 0.000 in 0.00 W/m2
04:29 74.0 °F 71.0 °F 29.9 in SSE 3 mph 3 mph 90% 0.000 in 0.00 W/m2
04:34 74.0 °F 71.0 °F 29.9 in SSE 5 mph 5 mph 90% 0.000 in 0.00 W/m2
04:39 74.0 °F 71.0 °F 29.9 in SE 3 mph 3 mph 90% 0.000 in 0.00 W/m2
04:44 74.0 °F 71.0 °F 29.9 in SE 2 mph 3 mph 90% 0.000 in 0.00 W/m2
04:49 74.0 °F 71.0 °F 29.9 in SE 1 mph 2 mph 90% 0.000 in 0.00 W/m2
04:54 74.0 °F 71.0 °F 29.9 in SE 2 mph 2 mph 90% 0.000 in 0.00 W/m2
04:59 73.0 °F 70.0 °F 29.9 in SSE 4 mph 4 mph 90% 0.000 in 0.00 W/m2
05:04 73.0 °F 70.0 °F 29.9 in SSE 4 mph 4 mph 90% 0.000 in 0.00 W/m2
05:09 73.0 °F 70.0 °F 29.9 in South 3 mph 4 mph 90% 0.000 in 0.00 W/m2
05:14 73.0 °F 70.0 °F 29.9 in SSE 4 mph 5 mph 90% 0.000 in 0.00 W/m2
05:19 73.0 °F 70.0 °F 29.9 in SE 2 mph 5 mph 90% 0.000 in 0.00 W/m2
05:24 73.0 °F 70.0 °F 29.9 in SE 3 mph 5 mph 90% 0.000 in 0.00 W/m2
05:29 73.0 °F 70.0 °F 29.9 in SE 3 mph 5 mph 90% 0.000 in 0.00 W/m2
05:34 73.0 °F 70.0 °F 29.9 in SE 4 mph 4 mph 90% 0.000 in 0.00 W/m2
05:39 73.0 °F 70.0 °F 29.9 in SSE 3 mph 4 mph 90% 0.000 in 0.00 W/m2
05:44 73.0 °F 70.0 °F 29.9 in SSE 5 mph 5 mph 90% 0.000 in 0.00 W/m2
05:49 73.0 °F 70.0 °F 29.9 in SSE 2 mph 3 mph 90% 0.000 in 0.00 W/m2
05:54 73.0 °F 70.0 °F 29.9 in SSE 2 mph 2 mph 90% 0.000 in 0.00 W/m2
05:59 73.0 °F 70.0 °F 29.9 in SSE 2 mph 2 mph 90% 0.000 in 0.00 W/m2
06:04 73.0 °F 70.0 °F 29.9 in SSE 5 mph 5 mph 90% 0.000 in 0.00 W/m2
06:09 73.0 °F 70.0 °F 29.9 in SSE 3 mph 3 mph 90% 0.000 in 0.00 W/m2
06:14 73.0 °F 70.0 °F 29.9 in SE 5 mph 5 mph 90% 0.000 in 0.00 W/m2
06:19 73.0 °F 70.0 °F 29.9 in SE 3 mph 4 mph 90% 0.000 in 0.00 W/m2
06:24 73.0 °F 70.0 °F 29.9 in SSE 5 mph 6 mph 90% 0.000 in 0.00 W/m2
06:29 73.0 °F 70.0 °F 29.9 in SSE 5 mph 5 mph 90% 0.000 in 0.00 W/m2
06:34 73.0 °F 70.0 °F 29.9 in SSE 4 mph 5 mph 90% 0.000 in 0.00 W/m2
06:39 73.0 °F 70.0 °F 29.9 in SSE 5 mph 5 mph 90% 0.000 in 0.00 W/m2
06:44 73.0 °F 70.0 °F 29.9 in SSE 3 mph 5 mph 90% 0.000 in 0.00 W/m2
06:49 73.0 °F 71.0 °F 29.9 in SSE 3 mph 3 mph 91% 0.000 in 0.00 W/m2
06:54 73.0 °F 71.0 °F 29.9 in SSE 4 mph 6 mph 91% 0.000 in 0.00 W/m2
06:59 73.0 °F 71.0 °F 29.9 in SSE 3 mph 6 mph 91% 0.000 in 0.00 W/m2
07:04 73.0 °F 71.0 °F 29.9 in SSE 4 mph 5 mph 91% 0.000 in 7.00 W/m2
07:09 73.0 °F 71.0 °F 29.9 in SSE 5 mph 5 mph 91% 0.000 in 11.00 W/m2
07:14 73.0 °F 71.0 °F 29.9 in SSE 6 mph 8 mph 91% 0.000 in 16.00 W/m2
07:19 73.0 °F 71.0 °F 29.9 in SSE 7 mph 9 mph 91% 0.000 in 19.00 W/m2
07:24 73.0 °F 71.0 °F 29.9 in SSE 6 mph 9 mph 91% 0.000 in 23.00 W/m2
07:29 73.0 °F 71.0 °F 29.9 in SSE 7 mph 8 mph 91% 0.000 in 30.00 W/m2
07:34 74.0 °F 71.0 °F 29.9 in SSE 5 mph 8 mph 91% 0.000 in 40.00 W/m2
07:39 74.0 °F 71.0 °F 30.0 in SSE 6 mph 7 mph 91% 0.000 in 35.00 W/m2
07:44 74.0 °F 71.0 °F 30.0 in South 7 mph 7 mph 91% 0.000 in 49.00 W/m2
07:49 74.0 °F 71.0 °F 30.0 in SSE 6 mph 7 mph 91% 0.000 in 56.00 W/m2
07:54 74.0 °F 71.0 °F 30.0 in SSE 6 mph 7 mph 91% 0.000 in 65.00 W/m2
07:59 74.0 °F 71.0 °F 30.0 in SSE 5 mph 7 mph 91% 0.000 in 70.00 W/m2
08:04 74.0 °F 71.0 °F 30.0 in SSE 7 mph 8 mph 91% 0.000 in 72.00 W/m2
08:09 74.0 °F 71.0 °F 30.0 in SSE 6 mph 8 mph 91% 0.000 in 72.00 W/m2
08:14 74.0 °F 71.0 °F 30.0 in South 9 mph 10 mph 91% 0.000 in 88.00 W/m2
08:19 75.0 °F 72.0 °F 30.0 in South 7 mph 7 mph 91% 0.000 in 88.00 W/m2
08:24 75.0 °F 72.0 °F 30.0 in SSE 8 mph 8 mph 91% 0.000 in 100.00 W/m2
08:29 75.0 °F 72.0 °F 30.0 in SSE 7 mph 8 mph 91% 0.000 in 97.00 W/m2
08:34 75.0 °F 72.0 °F 30.0 in SSE 8 mph 9 mph 91% 0.000 in 84.00 W/m2
08:39 75.0 °F 72.0 °F 30.0 in SSE 7 mph 7 mph 91% 0.000 in 84.00 W/m2
08:44 75.0 °F 72.0 °F 30.0 in SSE 9 mph 9 mph 91% 0.000 in 144.00 W/m2
08:54 75.0 °F 72.0 °F 30.0 in SSE 6 mph 8 mph 91% 0.000 in 174.00 W/m2
08:59 75.0 °F 72.0 °F 30.0 in SSE 9 mph 10 mph 90% 0.000 in 318.00 W/m2
09:04 76.0 °F 73.0 °F 30.0 in SSE 8 mph 9 mph 90% 0.000 in 343.00 W/m2
09:09 76.0 °F 73.0 °F 30.0 in SSE 10 mph 10 mph 90% 0.000 in 295.00 W/m2
09:14 76.0 °F 73.0 °F 30.0 in SSE 9 mph 10 mph 90% 0.000 in 193.00 W/m2
09:19 76.0 °F 73.0 °F 30.0 in SSE 9 mph 10 mph 89% 0.000 in 171.00 W/m2
09:24 76.0 °F 73.0 °F 30.0 in South 5 mph 7 mph 89% 0.000 in 234.00 W/m2
09:29 77.0 °F 73.0 °F 30.0 in SSE 13 mph 13 mph 88% 0.000 in 243.00 W/m2
09:34 77.0 °F 73.0 °F 30.0 in South 8 mph 13 mph 88% 0.000 in 209.00 W/m2
09:39 77.0 °F 73.0 °F 30.0 in South 7 mph 9 mph 88% 0.000 in 130.00 W/m2
09:44 77.0 °F 73.0 °F 30.0 in SSE 9 mph 11 mph 87% 0.000 in 97.00 W/m2
09:49 77.0 °F 72.0 °F 30.0 in SSE 6 mph 11 mph 86% 0.000 in 211.00 W/m2
09:54 77.0 °F 73.0 °F 30.0 in SSE 8 mph 8 mph 86% 0.000 in 267.00 W/m2
09:59 78.0 °F 73.0 °F 30.0 in SSE 10 mph 10 mph 86% 0.000 in 269.00 W/m2
10:04 78.0 °F 73.0 °F 30.0 in SSE 9 mph 10 mph 86% 0.000 in 255.00 W/m2
10:09 78.0 °F 73.0 °F 30.0 in South 10 mph 10 mph 85% 0.000 in 209.00 W/m2
10:14 78.0 °F 73.0 °F 30.0 in SSE 8 mph 11 mph 84% 0.000 in 120.00 W/m2
10:19 78.0 °F 73.0 °F 30.0 in South 6 mph 11 mph 83% 0.000 in 163.00 W/m2
10:24 78.0 °F 73.0 °F 30.0 in SSE 9 mph 10 mph 83% 0.000 in 163.00 W/m2
10:29 78.0 °F 72.0 °F 30.0 in SSE 6 mph 7 mph 82% 0.000 in 153.00 W/m2
10:34 78.0 °F 73.0 °F 30.0 in South 5 mph 7 mph 82% 0.000 in 139.00 W/m2
10:39 78.0 °F 73.0 °F 30.0 in South 11 mph 11 mph 82% 0.000 in 225.00 W/m2
10:44 79.0 °F 72.0 °F 30.0 in SSE 11 mph 12 mph 81% 0.000 in 253.00 W/m2
10:49 79.0 °F 72.0 °F 30.0 in SSE 10 mph 12 mph 81% 0.000 in 250.00 W/m2
10:54 79.0 °F 73.0 °F 30.0 in South 8 mph 11 mph 81% 0.000 in 244.00 W/m2
10:59 79.0 °F 73.0 °F 30.0 in SSE 7 mph 7 mph 81% 0.000 in 707.00 W/m2
11:04 80.0 °F 74.0 °F 30.0 in SSE 8 mph 9 mph 81% 0.000 in 817.00 W/m2
11:09 80.0 °F 74.0 °F 30.0 in SSE 8 mph 8 mph 81% 0.000 in 817.00 W/m2
11:14 81.0 °F 74.0 °F 30.0 in SSE 12 mph 12 mph 80% 0.000 in 758.00 W/m2
11:19 81.0 °F 74.0 °F 30.0 in SSE 10 mph 10 mph 79% 0.000 in 315.00 W/m2
11:24 81.0 °F 73.0 °F 30.0 in SSE 9 mph 11 mph 78% 0.000 in 323.00 W/m2
11:29 81.0 °F 73.0 °F 30.0 in SSE 8 mph 11 mph 78% 0.000 in 350.00 W/m2
11:34 81.0 °F 74.0 °F 30.0 in SSE 8 mph 10 mph 78% 0.000 in 315.00 W/m2
11:39 82.0 °F 74.0 °F 30.0 in SSE 12 mph 12 mph 78% 0.000 in 392.00 W/m2
11:44 82.0 °F 74.0 °F 30.0 in SSE 10 mph 12 mph 77% 0.000 in 408.00 W/m2
11:49 82.0 °F 73.0 °F 30.0 in South 12 mph 12 mph 76% 0.000 in 345.00 W/m2
11:54 82.0 °F 73.0 °F 30.0 in SSE 11 mph 12 mph 76% 0.000 in 193.00 W/m2
11:59 82.0 °F 73.0 °F 30.0 in South 12 mph 12 mph 75% 0.000 in 144.00 W/m2
12:04 81.0 °F 73.0 °F 30.0 in SSE 11 mph 12 mph 75% 0.000 in 299.00 W/m2
12:09 82.0 °F 74.0 °F 30.0 in SSE 10 mph 11 mph 77% 0.000 in 868.00 W/m2
12:14 82.0 °F 74.0 °F 30.0 in South 8 mph 12 mph 77% 0.000 in 868.00 W/m2
12:19 82.0 °F 73.0 °F 30.0 in SSE 12 mph 14 mph 76% 0.000 in 499.00 W/m2
12:24 82.0 °F 74.0 °F 30.0 in South 11 mph 16 mph 76% 0.000 in 543.00 W/m2
12:29 82.0 °F 74.0 °F 30.0 in South 10 mph 10 mph 76% 0.000 in 613.00 W/m2
12:34 83.0 °F 74.0 °F 30.0 in South 10 mph 10 mph 76% 0.000 in 1097.00 W/m2
12:39 83.0 °F 75.0 °F 30.0 in SSE 12 mph 12 mph 75% 0.000 in 944.00 W/m2
12:44 83.0 °F 74.0 °F 30.0 in South 11 mph 12 mph 74% 0.000 in 394.00 W/m2
12:49 83.0 °F 73.0 °F 30.0 in SSE 10 mph 10 mph 73% 0.000 in 369.00 W/m2
12:54 83.0 °F 73.0 °F 30.0 in SSE 12 mph 12 mph 73% 0.000 in 388.00 W/m2
12:59 82.0 °F 73.0 °F 30.0 in South 10 mph 11 mph 74% 0.000 in 364.00 W/m2
13:04 82.0 °F 73.0 °F 30.0 in South 8 mph 9 mph 74% 0.000 in 475.00 W/m2
13:09 83.0 °F 73.0 °F 30.0 in SSE 12 mph 14 mph 74% 0.000 in 452.00 W/m2
13:14 83.0 °F 73.0 °F 30.0 in SSE 9 mph 14 mph 73% 0.000 in 390.00 W/m2
13:19 83.0 °F 73.0 °F 30.0 in SSE 6 mph 9 mph 74% 0.000 in 480.00 W/m2
13:24 83.0 °F 74.0 °F 30.0 in South 10 mph 12 mph 74% 0.000 in 287.00 W/m2
13:29 83.0 °F 73.0 °F 30.0 in South 10 mph 10 mph 74% 0.000 in 526.00 W/m2
13:34 83.0 °F 74.0 °F 30.0 in South 10 mph 11 mph 74% 0.000 in 526.00 W/m2
13:39 83.0 °F 73.0 °F 30.0 in SSE 13 mph 14 mph 73% 0.000 in 446.00 W/m2
13:44 83.0 °F 73.0 °F 30.0 in South 9 mph 10 mph 73% 0.000 in 371.00 W/m2
13:49 83.0 °F 73.0 °F 30.0 in South 9 mph 10 mph 73% 0.000 in 155.00 W/m2
13:54 83.0 °F 73.0 °F 30.0 in South 7 mph 9 mph 73% 0.000 in 329.00 W/m2
13:59 83.0 °F 73.0 °F 30.0 in South 8 mph 9 mph 73% 0.000 in 464.00 W/m2
14:04 83.0 °F 73.0 °F 30.0 in South 8 mph 9 mph 72% 0.000 in 352.00 W/m2
14:09 83.0 °F 73.0 °F 30.0 in SSE 11 mph 11 mph 72% 0.000 in 313.00 W/m2
14:14 83.0 °F 73.0 °F 30.0 in SSE 8 mph 10 mph 73% 0.000 in 322.00 W/m2
14:19 83.0 °F 73.0 °F 30.0 in SSE 10 mph 10 mph 73% 0.000 in 260.00 W/m2
14:24 83.0 °F 73.0 °F 30.0 in SSE 11 mph 12 mph 73% 0.000 in 192.00 W/m2
14:29 83.0 °F 73.0 °F 30.0 in SSE 10 mph 10 mph 73% 0.000 in 223.00 W/m2
14:34 82.0 °F 73.0 °F 30.0 in SSE 5 mph 9 mph 74% 0.000 in 230.00 W/m2
14:39 82.0 °F 73.0 °F 30.0 in SSE 6 mph 8 mph 74% 0.000 in 220.00 W/m2
14:44 82.0 °F 73.0 °F 30.0 in SSE 7 mph 8 mph 74% 0.000 in 271.00 W/m2
14:49 82.0 °F 73.0 °F 30.0 in South 7 mph 7 mph 74% 0.000 in 308.00 W/m2
14:54 82.0 °F 73.0 °F 30.0 in South 5 mph 7 mph 75% 0.000 in 415.00 W/m2
14:59 82.0 °F 74.0 °F 30.0 in South 6 mph 6 mph 75% 0.000 in 432.00 W/m2
15:04 83.0 °F 74.0 °F 30.0 in South 7 mph 8 mph 75% 0.000 in 499.00 W/m2
15:09 83.0 °F 74.0 °F 30.0 in SSE 10 mph 15 mph 75% 0.000 in 366.00 W/m2
15:14 83.0 °F 73.0 °F 30.0 in South 8 mph 15 mph 72% 0.000 in 538.00 W/m2
15:19 84.0 °F 74.0 °F 30.0 in SSE 10 mph 10 mph 72% 0.000 in 538.00 W/m2
15:24 84.0 °F 74.0 °F 30.0 in South 11 mph 11 mph 72% 0.000 in 687.00 W/m2
15:29 84.0 °F 74.0 °F 30.0 in South 8 mph 9 mph 71% 0.000 in 768.00 W/m2
15:34 85.0 °F 74.0 °F 29.9 in SSE 8 mph 9 mph 70% 0.000 in 768.00 W/m2
15:39 86.0 °F 74.0 °F 29.9 in South 7 mph 11 mph 70% 0.000 in 840.00 W/m2
15:44 86.0 °F 74.0 °F 29.9 in South 11 mph 11 mph 68% 0.000 in 849.00 W/m2
15:49 86.0 °F 74.0 °F 29.9 in South 12 mph 12 mph 67% 0.000 in 816.00 W/m2
15:54 86.0 °F 74.0 °F 29.9 in SSE 10 mph 12 mph 66% 0.000 in 679.00 W/m2
15:59 86.0 °F 73.0 °F 29.9 in SSE 9 mph 12 mph 66% 0.000 in 302.00 W/m2
16:04 86.0 °F 73.0 °F 29.9 in SSE 10 mph 10 mph 66% 0.000 in 262.00 W/m2
16:09 85.0 °F 73.0 °F 29.9 in SSE 8 mph 11 mph 67% 0.000 in 306.00 W/m2
16:14 85.0 °F 73.0 °F 29.9 in South 8 mph 8 mph 67% 0.000 in 294.00 W/m2
16:19 85.0 °F 73.0 °F 29.9 in SSE 8 mph 8 mph 68% 0.000 in 185.00 W/m2
16:24 84.0 °F 73.0 °F 29.9 in SSE 7 mph 8 mph 68% 0.000 in 232.00 W/m2
16:29 84.0 °F 73.0 °F 29.9 in SSE 8 mph 11 mph 69% 0.000 in 230.00 W/m2
16:34 84.0 °F 73.0 °F 29.9 in SSE 9 mph 10 mph 70% 0.000 in 227.00 W/m2
16:39 84.0 °F 73.0 °F 29.9 in SSE 10 mph 10 mph 70% 0.000 in 227.00 W/m2
16:44 83.0 °F 73.0 °F 29.9 in SSE 8 mph 9 mph 70% 0.000 in 522.00 W/m2
16:49 84.0 °F 73.0 °F 29.9 in SSE 9 mph 10 mph 71% 0.000 in 522.00 W/m2
16:54 84.0 °F 73.0 °F 29.9 in SSE 9 mph 10 mph 71% 0.000 in 506.00 W/m2
16:59 84.0 °F 73.0 °F 29.9 in SSE 11 mph 11 mph 71% 0.000 in 417.00 W/m2
17:04 84.0 °F 73.0 °F 29.9 in SSE 9 mph 11 mph 70% 0.000 in 218.00 W/m2
17:09 84.0 °F 73.0 °F 29.9 in South 9 mph 11 mph 69% 0.000 in 209.00 W/m2
17:14 84.0 °F 73.0 °F 29.9 in SSE 10 mph 11 mph 69% 0.000 in 216.00 W/m2
17:19 84.0 °F 73.0 °F 29.9 in SE 8 mph 10 mph 70% 0.000 in 237.00 W/m2
17:24 84.0 °F 73.0 °F 29.9 in SSE 7 mph 10 mph 70% 0.000 in 246.00 W/m2
17:29 84.0 °F 73.0 °F 29.9 in SSE 11 mph 11 mph 70% 0.000 in 225.00 W/m2
17:34 84.0 °F 73.0 °F 29.9 in South 7 mph 8 mph 70% 0.000 in 392.00 W/m2
17:39 84.0 °F 73.0 °F 29.9 in SSE 7 mph 8 mph 71% 0.000 in 396.00 W/m2
17:44 84.0 °F 73.0 °F 29.9 in SSE 9 mph 9 mph 71% 0.000 in 359.00 W/m2
17:49 84.0 °F 73.0 °F 29.9 in South 8 mph 9 mph 70% 0.000 in 371.00 W/m2
17:54 84.0 °F 73.0 °F 29.9 in SSE 9 mph 9 mph 70% 0.000 in 357.00 W/m2
17:59 84.0 °F 73.0 °F 29.9 in SSE 8 mph 9 mph 70% 0.000 in 213.00 W/m2
18:04 84.0 °F 73.0 °F 29.9 in SSE 8 mph 10 mph 70% 0.000 in 162.00 W/m2
18:09 84.0 °F 72.0 °F 29.9 in South 6 mph 8 mph 69% 0.000 in 130.00 W/m2
18:14 83.0 °F 72.0 °F 29.9 in SSE 10 mph 10 mph 70% 0.000 in 128.00 W/m2
18:19 83.0 °F 72.0 °F 29.9 in SSE 8 mph 10 mph 71% 0.000 in 123.00 W/m2
18:24 83.0 °F 72.0 °F 29.9 in South 9 mph 10 mph 71% 0.000 in 114.00 W/m2
18:29 82.0 °F 72.0 °F 29.9 in SSE 11 mph 11 mph 71% 0.000 in 95.00 W/m2
18:34 82.0 °F 72.0 °F 29.9 in SSE 9 mph 10 mph 72% 0.000 in 72.00 W/m2
18:39 82.0 °F 72.0 °F 29.9 in South 7 mph 10 mph 72% 0.000 in 62.00 W/m2
18:44 81.0 °F 72.0 °F 29.9 in SSE 5 mph 6 mph 73% 0.000 in 58.00 W/m2
18:49 81.0 °F 72.0 °F 29.9 in SSE 6 mph 7 mph 73% 0.000 in 58.00 W/m2
18:54 81.0 °F 72.0 °F 29.9 in SSE 6 mph 6 mph 73% 0.000 in 54.00 W/m2
18:59 81.0 °F 72.0 °F 29.9 in SSE 5 mph 5 mph 74% 0.000 in 53.00 W/m2
19:04 81.0 °F 72.0 °F 29.9 in SSE 5 mph 6 mph 74% 0.000 in 49.00 W/m2
19:09 80.0 °F 71.0 °F 29.9 in SSE 5 mph 6 mph 74% 0.000 in 40.00 W/m2
19:14 80.0 °F 72.0 °F 29.9 in South 4 mph 5 mph 75% 0.000 in 26.00 W/m2
19:19 80.0 °F 72.0 °F 29.9 in SSE 4 mph 5 mph 75% 0.000 in 23.00 W/m2
19:24 80.0 °F 71.0 °F 29.9 in SSE 4 mph 5 mph 75% 0.000 in 19.00 W/m2
19:29 80.0 °F 71.0 °F 29.9 in SSE 4 mph 5 mph 75% 0.000 in 16.00 W/m2
19:34 80.0 °F 71.0 °F 29.9 in SSE 5 mph 5 mph 75% 0.000 in 12.00 W/m2
19:39 80.0 °F 71.0 °F 29.9 in SSE 5 mph 5 mph 75% 0.000 in 7.00 W/m2
19:44 80.0 °F 71.0 °F 29.9 in SSE 3 mph 4 mph 76% 0.000 in 0.00 W/m2
19:49 79.0 °F 71.0 °F 29.9 in SSE 5 mph 5 mph 76% 0.000 in 0.00 W/m2
19:54 79.0 °F 71.0 °F 29.9 in SSE 3 mph 3 mph 76% 0.000 in 0.00 W/m2
19:59 79.0 °F 71.0 °F 29.9 in SSE 2 mph 3 mph 76% 0.000 in 0.00 W/m2
20:04 79.0 °F 71.0 °F 29.9 in SSE 2 mph 2 mph 76% 0.000 in 0.00 W/m2
20:09 79.0 °F 71.0 °F 29.9 in SSE 2 mph 2 mph 76% 0.000 in 0.00 W/m2
20:14 79.0 °F 71.0 °F 29.9 in SSE 1 mph 2 mph 76% 0.000 in 0.00 W/m2
20:19 79.0 °F 71.0 °F 29.9 in SSE 1 mph 1 mph 77% 0.000 in 0.00 W/m2
20:24 78.0 °F 71.0 °F 29.9 in SSE 2 mph 2 mph 77% 0.000 in 0.00 W/m2
20:29 78.0 °F 71.0 °F 29.9 in SSE 1 mph 2 mph 77% 0.000 in 0.00 W/m2
20:34 78.0 °F 71.0 °F 29.9 in SSE 3 mph 3 mph 77% 0.000 in 0.00 W/m2
20:39 78.0 °F 71.0 °F 29.9 in SSE 3 mph 3 mph 78% 0.000 in 0.00 W/m2
20:44 78.0 °F 71.0 °F 29.9 in SE 3 mph 3 mph 78% 0.000 in 0.00 W/m2
20:49 78.0 °F 71.0 °F 29.9 in SE 3 mph 3 mph 78% 0.000 in 0.00 W/m2
20:54 78.0 °F 71.0 °F 29.9 in SE 3 mph 3 mph 78% 0.000 in 0.00 W/m2
20:59 78.0 °F 70.0 °F 29.9 in SE 3 mph 4 mph 78% 0.000 in 0.00 W/m2
21:04 78.0 °F 71.0 °F 29.9 in SE 3 mph 4 mph 79% 0.000 in 0.00 W/m2
21:09 78.0 °F 71.0 °F 29.9 in SE 4 mph 5 mph 79% 0.000 in 0.00 W/m2
21:14 78.0 °F 71.0 °F 29.9 in SE 3 mph 4 mph 79% 0.000 in 0.00 W/m2
21:19 77.0 °F 70.0 °F 29.9 in SE 4 mph 5 mph 79% 0.000 in 0.00 W/m2
21:24 77.0 °F 70.0 °F 29.9 in SE 5 mph 5 mph 79% 0.000 in 0.00 W/m2
21:29 77.0 °F 70.0 °F 29.9 in SE 3 mph 4 mph 79% 0.000 in 0.00 W/m2
21:34 77.0 °F 70.0 °F 29.9 in SE 2 mph 3 mph 79% 0.000 in 0.00 W/m2
21:39 77.0 °F 70.0 °F 29.9 in SE 3 mph 3 mph 79% 0.000 in 0.00 W/m2
21:44 77.0 °F 70.0 °F 29.9 in SE 1 mph 3 mph 79% 0.000 in 0.00 W/m2
21:49 77.0 °F 70.0 °F 29.9 in SE 1 mph 1 mph 79% 0.000 in 0.00 W/m2
21:54 77.0 °F 70.0 °F 30.0 in Calm   1 mph 79% 0.000 in 0.00 W/m2
21:59 77.0 °F 70.0 °F 30.0 in SE 2 mph 2 mph 80% 0.000 in 0.00 W/m2
22:04 77.0 °F 70.0 °F 30.0 in Calm   2 mph 80% 0.000 in 0.00 W/m2
22:09 77.0 °F 70.0 °F 30.0 in Calm     80% 0.000 in 0.00 W/m2
22:14 77.0 °F 70.0 °F 30.0 in SE 1 mph 1 mph 80% 0.000 in 0.00 W/m2
22:19 76.0 °F 70.0 °F 30.0 in SE 1 mph 1 mph 80% 0.000 in 0.00 W/m2
22:24 76.0 °F 70.0 °F 30.0 in SE 1 mph 2 mph 80% 0.000 in 0.00 W/m2
22:29 76.0 °F 69.0 °F 30.0 in SE 2 mph 2 mph 80% 0.000 in 0.00 W/m2
22:34 76.0 °F 70.0 °F 30.0 in SE 1 mph 1 mph 81% 0.000 in 0.00 W/m2
22:39 76.0 °F 70.0 °F 30.0 in SE 2 mph 3 mph 81% 0.000 in 0.00 W/m2
22:44 76.0 °F 70.0 °F 30.0 in SE 3 mph 3 mph 82% 0.000 in 0.00 W/m2
22:49 76.0 °F 70.0 °F 30.0 in SE 3 mph 3 mph 82% 0.000 in 0.00 W/m2
22:54 76.0 °F 70.0 °F 30.0 in SE 3 mph 3 mph 82% 0.000 in 0.00 W/m2
22:59 76.0 °F 70.0 °F 30.0 in SE 4 mph 5 mph 82% 0.000 in 0.00 W/m2
23:04 75.0 °F 70.0 °F 29.9 in SE 3 mph 5 mph 83% 0.000 in 0.00 W/m2
23:09 75.0 °F 70.0 °F 29.9 in SE 2 mph 4 mph 83% 0.000 in 0.00 W/m2
23:14 75.0 °F 70.0 °F 30.0 in SE 1 mph 1 mph 83% 0.000 in 0.00 W/m2
23:19 75.0 °F 70.0 °F 30.0 in SSE 2 mph 3 mph 83% 0.000 in 0.00 W/m2
23:24 75.0 °F 70.0 °F 30.0 in SSE 3 mph 4 mph 83% 0.000 in 0.00 W/m2
23:29 75.0 °F 69.0 °F 30.0 in SE 3 mph 5 mph 83% 0.000 in 0.00 W/m2
23:34 75.0 °F 70.0 °F 30.0 in SE 4 mph 5 mph 84% 0.000 in 0.00 W/m2
23:39 75.0 °F 70.0 °F 30.0 in SE 4 mph 5 mph 84% 0.000 in 0.00 W/m2
23:44 75.0 °F 70.0 °F 30.0 in SE 2 mph 4 mph 84% 0.000 in 0.00 W/m2
23:49 75.0 °F 70.0 °F 30.0 in SE 2 mph 3 mph 84% 0.000 in 0.00 W/m2
23:54 75.0 °F 70.0 °F 30.0 in SSE 6 mph 6 mph 84% 0.000 in 0.00 W/m2
23:59 75.0 °F 70.0 °F 29.9 in SSE 5 mph 6 mph 84% 0.000 in 0.00 W/m2
Villages of Bridgestone, Spring, TX USA
Compliments of Weather Underground - 4 mb